sensor_id;sensor_type;location;lat;lon;timestamp;P1;durP1;ratioP1;P2;durP2;ratioP2
77220;SDS011;66217;50.004;8.266;2022-12-29T00:01:43;3.10;;;2.00;;
77220;SDS011;66217;50.004;8.266;2022-12-29T00:04:09;9.90;;;2.65;;
77220;SDS011;66217;50.004;8.266;2022-12-29T00:06:37;5.80;;;2.67;;
77220;SDS011;66217;50.004;8.266;2022-12-29T00:09:02;6.07;;;2.45;;
77220;SDS011;66217;50.004;8.266;2022-12-29T00:11:28;5.00;;;2.38;;
77220;SDS011;66217;50.004;8.266;2022-12-29T00:13:53;5.20;;;2.40;;
77220;SDS011;66217;50.004;8.266;2022-12-29T00:16:39;7.22;;;2.40;;
77220;SDS011;66217;50.004;8.266;2022-12-29T00:19:06;9.95;;;2.33;;
77220;SDS011;66217;50.004;8.266;2022-12-29T00:21:51;3.03;;;2.20;;
77220;SDS011;66217;50.004;8.266;2022-12-29T00:24:35;5.88;;;1.90;;
77220;SDS011;66217;50.004;8.266;2022-12-29T00:27:19;3.78;;;1.92;;
77220;SDS011;66217;50.004;8.266;2022-12-29T00:30:10;5.68;;;2.30;;
77220;SDS011;66217;50.004;8.266;2022-12-29T00:32:56;4.35;;;2.30;;
77220;SDS011;66217;50.004;8.266;2022-12-29T00:35:48;6.13;;;2.20;;
77220;SDS011;66217;50.004;8.266;2022-12-29T00:38:17;3.33;;;2.20;;
77220;SDS011;66217;50.004;8.266;2022-12-29T00:41:03;7.57;;;2.10;;
77220;SDS011;66217;50.004;8.266;2022-12-29T00:43:47;5.30;;;2.20;;
77220;SDS011;66217;50.004;8.266;2022-12-29T00:46:33;5.47;;;1.92;;
77220;SDS011;66217;50.004;8.266;2022-12-29T00:48:59;3.70;;;1.95;;
77220;SDS011;66217;50.004;8.266;2022-12-29T00:51:44;3.75;;;1.98;;
77220;SDS011;66217;50.004;8.266;2022-12-29T00:54:10;4.35;;;2.40;;
77220;SDS011;66217;50.004;8.266;2022-12-29T00:56:36;4.65;;;2.13;;
77220;SDS011;66217;50.004;8.266;2022-12-29T00:59:05;7.20;;;2.47;;
77220;SDS011;66217;50.004;8.266;2022-12-29T01:01:33;4.57;;;2.20;;
77220;SDS011;66217;50.004;8.266;2022-12-29T01:03:58;7.13;;;2.25;;
77220;SDS011;66217;50.004;8.266;2022-12-29T01:06:24;4.65;;;2.35;;
77220;SDS011;66217;50.004;8.266;2022-12-29T01:08:50;3.10;;;1.92;;
77220;SDS011;66217;50.004;8.266;2022-12-29T01:11:36;4.13;;;2.25;;
77220;SDS011;66217;50.004;8.266;2022-12-29T01:14:01;5.70;;;2.20;;
77220;SDS011;66217;50.004;8.266;2022-12-29T01:16:27;4.85;;;2.20;;
77220;SDS011;66217;50.004;8.266;2022-12-29T01:18:53;4.18;;;2.25;;
77220;SDS011;66217;50.004;8.266;2022-12-29T01:21:21;3.92;;;2.08;;
77220;SDS011;66217;50.004;8.266;2022-12-29T01:23:49;6.20;;;2.17;;
77220;SDS011;66217;50.004;8.266;2022-12-29T01:26:15;5.78;;;2.38;;
77220;SDS011;66217;50.004;8.266;2022-12-29T01:28:41;4.75;;;2.22;;
77220;SDS011;66217;50.004;8.266;2022-12-29T01:31:07;5.88;;;2.10;;
77220;SDS011;66217;50.004;8.266;2022-12-29T01:33:33;3.20;;;1.98;;
77220;SDS011;66217;50.004;8.266;2022-12-29T01:35:59;4.32;;;2.10;;
77220;SDS011;66217;50.004;8.266;2022-12-29T01:38:25;3.20;;;2.10;;
77220;SDS011;66217;50.004;8.266;2022-12-29T01:40:51;5.00;;;2.53;;
77220;SDS011;66217;50.004;8.266;2022-12-29T01:43:16;2.38;;;1.70;;
77220;SDS011;66217;50.004;8.266;2022-12-29T01:45:49;4.85;;;1.90;;
77220;SDS011;66217;50.004;8.266;2022-12-29T01:48:15;4.47;;;2.15;;
77220;SDS011;66217;50.004;8.266;2022-12-29T01:50:50;6.70;;;2.10;;
77220;SDS011;66217;50.004;8.266;2022-12-29T01:53:21;5.25;;;2.10;;
77220;SDS011;66217;50.004;8.266;2022-12-29T01:55:54;3.85;;;1.85;;
77220;SDS011;66217;50.004;8.266;2022-12-29T01:58:23;3.00;;;2.10;;
77220;SDS011;66217;50.004;8.266;2022-12-29T02:00:50;6.18;;;2.20;;
77220;SDS011;66217;50.004;8.266;2022-12-29T02:03:16;4.00;;;1.90;;
77220;SDS011;66217;50.004;8.266;2022-12-29T02:05:54;3.13;;;1.90;;
77220;SDS011;66217;50.004;8.266;2022-12-29T02:08:23;3.72;;;1.95;;
77220;SDS011;66217;50.004;8.266;2022-12-29T02:10:51;7.93;;;2.20;;
77220;SDS011;66217;50.004;8.266;2022-12-29T02:13:23;2.30;;;1.80;;
77220;SDS011;66217;50.004;8.266;2022-12-29T02:18:51;4.82;;;2.13;;
77220;SDS011;66217;50.004;8.266;2022-12-29T02:41:37;5.07;;;1.77;;
77220;SDS011;66217;50.004;8.266;2022-12-29T02:47:20;3.42;;;1.70;;
77220;SDS011;66217;50.004;8.266;2022-12-29T02:50:01;3.63;;;1.58;;
77220;SDS011;66217;50.004;8.266;2022-12-29T02:52:37;4.75;;;1.60;;
77220;SDS011;66217;50.004;8.266;2022-12-29T02:55:05;2.55;;;1.40;;
77220;SDS011;66217;50.004;8.266;2022-12-29T02:57:35;2.72;;;1.60;;
77220;SDS011;66217;50.004;8.266;2022-12-29T03:16:32;4.15;;;1.60;;
77220;SDS011;66217;50.004;8.266;2022-12-29T03:21:50;2.78;;;1.50;;
77220;SDS011;66217;50.004;8.266;2022-12-29T03:24:42;3.88;;;1.60;;
77220;SDS011;66217;50.004;8.266;2022-12-29T03:27:13;4.65;;;1.75;;
77220;SDS011;66217;50.004;8.266;2022-12-29T03:29:42;1.92;;;1.40;;
77220;SDS011;66217;50.004;8.266;2022-12-29T03:32:12;5.18;;;2.00;;
77220;SDS011;66217;50.004;8.266;2022-12-29T03:34:39;4.68;;;1.85;;
77220;SDS011;66217;50.004;8.266;2022-12-29T03:37:07;3.53;;;1.63;;
77220;SDS011;66217;50.004;8.266;2022-12-29T03:39:35;4.60;;;1.40;;
77220;SDS011;66217;50.004;8.266;2022-12-29T03:42:01;3.17;;;1.52;;
77220;SDS011;66217;50.004;8.266;2022-12-29T03:44:36;4.40;;;1.80;;
77220;SDS011;66217;50.004;8.266;2022-12-29T03:47:03;1.85;;;1.50;;
77220;SDS011;66217;50.004;8.266;2022-12-29T03:49:28;4.30;;;1.80;;
77220;SDS011;66217;50.004;8.266;2022-12-29T03:51:54;3.88;;;1.60;;
77220;SDS011;66217;50.004;8.266;2022-12-29T03:54:20;3.33;;;1.80;;
77220;SDS011;66217;50.004;8.266;2022-12-29T03:56:45;7.45;;;1.90;;
77220;SDS011;66217;50.004;8.266;2022-12-29T03:59:17;2.08;;;1.48;;
77220;SDS011;66217;50.004;8.266;2022-12-29T04:01:43;4.43;;;1.70;;
77220;SDS011;66217;50.004;8.266;2022-12-29T04:04:09;3.60;;;1.65;;
77220;SDS011;66217;50.004;8.266;2022-12-29T04:06:34;2.58;;;1.60;;
77220;SDS011;66217;50.004;8.266;2022-12-29T04:09:05;2.22;;;1.73;;
77220;SDS011;66217;50.004;8.266;2022-12-29T04:11:36;3.45;;;1.63;;
77220;SDS011;66217;50.004;8.266;2022-12-29T04:14:02;4.38;;;1.67;;
77220;SDS011;66217;50.004;8.266;2022-12-29T04:16:29;4.60;;;1.83;;
77220;SDS011;66217;50.004;8.266;2022-12-29T04:18:55;3.65;;;1.98;;
77220;SDS011;66217;50.004;8.266;2022-12-29T04:21:21;2.47;;;1.80;;
77220;SDS011;66217;50.004;8.266;2022-12-29T04:23:47;5.63;;;1.60;;
77220;SDS011;66217;50.004;8.266;2022-12-29T04:26:14;2.60;;;1.45;;
77220;SDS011;66217;50.004;8.266;2022-12-29T04:29:05;3.33;;;1.73;;
77220;SDS011;66217;50.004;8.266;2022-12-29T04:31:38;2.55;;;1.58;;
77220;SDS011;66217;50.004;8.266;2022-12-29T04:34:04;3.30;;;1.60;;
77220;SDS011;66217;50.004;8.266;2022-12-29T04:36:31;4.65;;;1.73;;
77220;SDS011;66217;50.004;8.266;2022-12-29T04:38:56;2.28;;;1.65;;
77220;SDS011;66217;50.004;8.266;2022-12-29T04:41:22;2.42;;;1.80;;
77220;SDS011;66217;50.004;8.266;2022-12-29T04:43:48;2.50;;;1.60;;
77220;SDS011;66217;50.004;8.266;2022-12-29T04:46:32;4.60;;;1.88;;
77220;SDS011;66217;50.004;8.266;2022-12-29T04:49:00;2.63;;;1.77;;
77220;SDS011;66217;50.004;8.266;2022-12-29T04:51:51;3.20;;;1.85;;
77220;SDS011;66217;50.004;8.266;2022-12-29T04:54:17;2.95;;;1.88;;
77220;SDS011;66217;50.004;8.266;2022-12-29T04:56:47;3.17;;;1.30;;
77220;SDS011;66217;50.004;8.266;2022-12-29T04:59:14;4.20;;;1.90;;
77220;SDS011;66217;50.004;8.266;2022-12-29T05:01:41;2.10;;;1.40;;
77220;SDS011;66217;50.004;8.266;2022-12-29T05:04:07;3.60;;;1.52;;
77220;SDS011;66217;50.004;8.266;2022-12-29T05:06:33;4.22;;;1.85;;
77220;SDS011;66217;50.004;8.266;2022-12-29T05:08:59;5.65;;;1.73;;
77220;SDS011;66217;50.004;8.266;2022-12-29T05:11:25;3.58;;;1.65;;
77220;SDS011;66217;50.004;8.266;2022-12-29T05:13:52;4.53;;;1.60;;
77220;SDS011;66217;50.004;8.266;2022-12-29T05:16:17;7.10;;;1.90;;
77220;SDS011;66217;50.004;8.266;2022-12-29T05:18:43;5.63;;;1.70;;
77220;SDS011;66217;50.004;8.266;2022-12-29T05:21:08;3.90;;;1.83;;
77220;SDS011;66217;50.004;8.266;2022-12-29T05:23:34;3.25;;;1.83;;
77220;SDS011;66217;50.004;8.266;2022-12-29T05:26:03;5.60;;;1.83;;
77220;SDS011;66217;50.004;8.266;2022-12-29T05:28:55;4.32;;;1.80;;
77220;SDS011;66217;50.004;8.266;2022-12-29T05:31:21;4.07;;;1.70;;
77220;SDS011;66217;50.004;8.266;2022-12-29T05:33:47;3.13;;;1.85;;
77220;SDS011;66217;50.004;8.266;2022-12-29T05:36:13;5.00;;;1.90;;
77220;SDS011;66217;50.004;8.266;2022-12-29T05:38:42;2.10;;;1.52;;
77220;SDS011;66217;50.004;8.266;2022-12-29T05:41:08;4.10;;;1.92;;
77220;SDS011;66217;50.004;8.266;2022-12-29T05:43:49;3.92;;;1.88;;
77220;SDS011;66217;50.004;8.266;2022-12-29T05:46:29;3.65;;;1.77;;
77220;SDS011;66217;50.004;8.266;2022-12-29T05:49:15;6.15;;;1.70;;
77220;SDS011;66217;50.004;8.266;2022-12-29T05:51:59;5.32;;;1.98;;
77220;SDS011;66217;50.004;8.266;2022-12-29T05:54:27;4.13;;;1.60;;
77220;SDS011;66217;50.004;8.266;2022-12-29T05:56:52;5.20;;;1.77;;
77220;SDS011;66217;50.004;8.266;2022-12-29T05:59:19;2.63;;;1.40;;
77220;SDS011;66217;50.004;8.266;2022-12-29T06:01:45;3.38;;;1.60;;
77220;SDS011;66217;50.004;8.266;2022-12-29T06:04:11;3.42;;;2.10;;
77220;SDS011;66217;50.004;8.266;2022-12-29T06:06:36;3.53;;;1.77;;
77220;SDS011;66217;50.004;8.266;2022-12-29T06:09:02;2.45;;;1.60;;
77220;SDS011;66217;50.004;8.266;2022-12-29T06:11:28;1.83;;;1.60;;
77220;SDS011;66217;50.004;8.266;2022-12-29T06:13:57;2.75;;;1.65;;
77220;SDS011;66217;50.004;8.266;2022-12-29T06:16:23;4.00;;;1.70;;
77220;SDS011;66217;50.004;8.266;2022-12-29T06:18:52;2.90;;;1.60;;
77220;SDS011;66217;50.004;8.266;2022-12-29T06:21:18;4.38;;;1.60;;
77220;SDS011;66217;50.004;8.266;2022-12-29T06:23:44;6.05;;;1.85;;
77220;SDS011;66217;50.004;8.266;2022-12-29T06:26:10;2.03;;;1.40;;
77220;SDS011;66217;50.004;8.266;2022-12-29T06:28:36;2.92;;;1.30;;
77220;SDS011;66217;50.004;8.266;2022-12-29T06:31:02;2.58;;;1.40;;
77220;SDS011;66217;50.004;8.266;2022-12-29T06:33:28;3.90;;;1.90;;
77220;SDS011;66217;50.004;8.266;2022-12-29T06:35:56;3.85;;;1.65;;
77220;SDS011;66217;50.004;8.266;2022-12-29T06:38:21;6.82;;;2.03;;
77220;SDS011;66217;50.004;8.266;2022-12-29T06:40:47;3.97;;;1.50;;
77220;SDS011;66217;50.004;8.266;2022-12-29T06:43:18;2.17;;;1.77;;
77220;SDS011;66217;50.004;8.266;2022-12-29T06:46:06;4.38;;;1.80;;
77220;SDS011;66217;50.004;8.266;2022-12-29T06:48:32;5.15;;;1.90;;
77220;SDS011;66217;50.004;8.266;2022-12-29T06:50:57;5.15;;;1.70;;
77220;SDS011;66217;50.004;8.266;2022-12-29T06:53:23;3.22;;;1.70;;
77220;SDS011;66217;50.004;8.266;2022-12-29T06:55:48;2.83;;;1.60;;
77220;SDS011;66217;50.004;8.266;2022-12-29T06:58:14;2.45;;;1.60;;
77220;SDS011;66217;50.004;8.266;2022-12-29T07:00:39;6.32;;;2.10;;
77220;SDS011;66217;50.004;8.266;2022-12-29T07:03:05;4.32;;;1.95;;
77220;SDS011;66217;50.004;8.266;2022-12-29T07:05:31;4.85;;;2.60;;
77220;SDS011;66217;50.004;8.266;2022-12-29T07:07:57;4.28;;;1.90;;
77220;SDS011;66217;50.004;8.266;2022-12-29T07:10:23;5.20;;;2.05;;
77220;SDS011;66217;50.004;8.266;2022-12-29T07:12:49;4.60;;;1.73;;
77220;SDS011;66217;50.004;8.266;2022-12-29T07:15:14;2.53;;;1.75;;
77220;SDS011;66217;50.004;8.266;2022-12-29T07:17:40;3.08;;;1.80;;
77220;SDS011;66217;50.004;8.266;2022-12-29T07:20:06;3.80;;;1.80;;
77220;SDS011;66217;50.004;8.266;2022-12-29T07:22:35;4.43;;;1.90;;
77220;SDS011;66217;50.004;8.266;2022-12-29T07:25:00;6.15;;;2.15;;
77220;SDS011;66217;50.004;8.266;2022-12-29T07:27:26;6.28;;;2.10;;
77220;SDS011;66217;50.004;8.266;2022-12-29T07:29:52;3.33;;;1.92;;
77220;SDS011;66217;50.004;8.266;2022-12-29T07:32:17;4.75;;;2.15;;
77220;SDS011;66217;50.004;8.266;2022-12-29T07:34:42;5.97;;;2.10;;
77220;SDS011;66217;50.004;8.266;2022-12-29T07:37:10;4.72;;;2.00;;
77220;SDS011;66217;50.004;8.266;2022-12-29T07:39:35;4.13;;;1.83;;
77220;SDS011;66217;50.004;8.266;2022-12-29T07:42:01;5.38;;;2.78;;
77220;SDS011;66217;50.004;8.266;2022-12-29T07:44:33;3.17;;;1.88;;
77220;SDS011;66217;50.004;8.266;2022-12-29T07:47:12;8.30;;;2.38;;
77220;SDS011;66217;50.004;8.266;2022-12-29T07:49:37;3.92;;;2.20;;
77220;SDS011;66217;50.004;8.266;2022-12-29T07:52:03;4.43;;;2.05;;
77220;SDS011;66217;50.004;8.266;2022-12-29T07:54:28;8.95;;;2.17;;
77220;SDS011;66217;50.004;8.266;2022-12-29T07:56:54;5.07;;;2.15;;
77220;SDS011;66217;50.004;8.266;2022-12-29T07:59:19;8.73;;;2.45;;
77220;SDS011;66217;50.004;8.266;2022-12-29T08:01:45;5.13;;;2.08;;
77220;SDS011;66217;50.004;8.266;2022-12-29T08:04:10;5.22;;;2.05;;
77220;SDS011;66217;50.004;8.266;2022-12-29T08:06:36;3.33;;;2.22;;
77220;SDS011;66217;50.004;8.266;2022-12-29T08:09:03;9.38;;;2.53;;
77220;SDS011;66217;50.004;8.266;2022-12-29T08:11:30;6.63;;;2.50;;
77220;SDS011;66217;50.004;8.266;2022-12-29T08:13:55;6.03;;;2.50;;
77220;SDS011;66217;50.004;8.266;2022-12-29T08:16:21;5.82;;;2.33;;
77220;SDS011;66217;50.004;8.266;2022-12-29T08:18:46;4.45;;;2.20;;
77220;SDS011;66217;50.004;8.266;2022-12-29T08:21:11;7.18;;;2.75;;
77220;SDS011;66217;50.004;8.266;2022-12-29T08:23:39;4.90;;;2.50;;
77220;SDS011;66217;50.004;8.266;2022-12-29T08:26:05;4.35;;;2.22;;
77220;SDS011;66217;50.004;8.266;2022-12-29T08:28:31;4.93;;;2.33;;
77220;SDS011;66217;50.004;8.266;2022-12-29T08:30:58;4.68;;;2.42;;
77220;SDS011;66217;50.004;8.266;2022-12-29T08:33:25;6.85;;;2.45;;
77220;SDS011;66217;50.004;8.266;2022-12-29T08:35:50;4.60;;;2.20;;
77220;SDS011;66217;50.004;8.266;2022-12-29T08:38:16;7.25;;;2.42;;
77220;SDS011;66217;50.004;8.266;2022-12-29T08:40:42;8.45;;;2.22;;
77220;SDS011;66217;50.004;8.266;2022-12-29T08:43:08;7.20;;;2.92;;
77220;SDS011;66217;50.004;8.266;2022-12-29T08:45:33;6.85;;;2.25;;
77220;SDS011;66217;50.004;8.266;2022-12-29T08:47:59;5.45;;;2.25;;
77220;SDS011;66217;50.004;8.266;2022-12-29T08:50:24;6.10;;;2.45;;
77220;SDS011;66217;50.004;8.266;2022-12-29T08:52:50;4.80;;;2.58;;
77220;SDS011;66217;50.004;8.266;2022-12-29T08:55:15;6.15;;;2.90;;
77220;SDS011;66217;50.004;8.266;2022-12-29T08:57:41;6.60;;;2.67;;
77220;SDS011;66217;50.004;8.266;2022-12-29T09:00:13;10.95;;;2.92;;
77220;SDS011;66217;50.004;8.266;2022-12-29T09:02:40;3.72;;;2.20;;
77220;SDS011;66217;50.004;8.266;2022-12-29T09:05:05;5.75;;;2.70;;
77220;SDS011;66217;50.004;8.266;2022-12-29T09:07:31;6.15;;;2.83;;
77220;SDS011;66217;50.004;8.266;2022-12-29T09:09:57;8.50;;;3.25;;
77220;SDS011;66217;50.004;8.266;2022-12-29T09:12:22;4.38;;;2.78;;
77220;SDS011;66217;50.004;8.266;2022-12-29T09:14:48;4.43;;;2.80;;
77220;SDS011;66217;50.004;8.266;2022-12-29T09:17:13;9.55;;;2.72;;
77220;SDS011;66217;50.004;8.266;2022-12-29T09:19:57;6.47;;;3.00;;
77220;SDS011;66217;50.004;8.266;2022-12-29T09:22:23;7.97;;;2.97;;
77220;SDS011;66217;50.004;8.266;2022-12-29T09:24:48;7.40;;;2.70;;
77220;SDS011;66217;50.004;8.266;2022-12-29T09:27:14;8.15;;;2.67;;
77220;SDS011;66217;50.004;8.266;2022-12-29T09:29:39;7.38;;;3.20;;
77220;SDS011;66217;50.004;8.266;2022-12-29T09:32:05;8.57;;;2.70;;
77220;SDS011;66217;50.004;8.266;2022-12-29T09:34:30;7.40;;;3.17;;
77220;SDS011;66217;50.004;8.266;2022-12-29T09:36:56;6.35;;;3.17;;
77220;SDS011;66217;50.004;8.266;2022-12-29T09:39:22;6.55;;;2.90;;
77220;SDS011;66217;50.004;8.266;2022-12-29T09:41:49;6.30;;;2.90;;
77220;SDS011;66217;50.004;8.266;2022-12-29T09:47:10;5.07;;;2.42;;
77220;SDS011;66217;50.004;8.266;2022-12-29T09:49:40;8.55;;;3.00;;
77220;SDS011;66217;50.004;8.266;2022-12-29T09:52:15;6.25;;;2.72;;
77220;SDS011;66217;50.004;8.266;2022-12-29T09:57:27;2.95;;;2.05;;
77220;SDS011;66217;50.004;8.266;2022-12-29T09:59:57;4.90;;;1.73;;
77220;SDS011;66217;50.004;8.266;2022-12-29T10:02:34;3.67;;;1.73;;
77220;SDS011;66217;50.004;8.266;2022-12-29T10:05:03;5.40;;;1.73;;
77220;SDS011;66217;50.004;8.266;2022-12-29T10:07:41;3.90;;;1.45;;
77220;SDS011;66217;50.004;8.266;2022-12-29T10:10:23;4.10;;;1.50;;
77220;SDS011;66217;50.004;8.266;2022-12-29T10:21:05;4.05;;;1.58;;
77220;SDS011;66217;50.004;8.266;2022-12-29T10:26:32;2.88;;;1.20;;
77220;SDS011;66217;50.004;8.266;2022-12-29T10:29:15;2.53;;;1.30;;
77220;SDS011;66217;50.004;8.266;2022-12-29T10:31:44;3.35;;;1.40;;
77220;SDS011;66217;50.004;8.266;2022-12-29T10:34:19;2.05;;;1.50;;
77220;SDS011;66217;50.004;8.266;2022-12-29T10:36:47;1.63;;;1.10;;
77220;SDS011;66217;50.004;8.266;2022-12-29T10:39:26;4.00;;;1.70;;
77220;SDS011;66217;50.004;8.266;2022-12-29T10:44:35;2.78;;;0.90;;
77220;SDS011;66217;50.004;8.266;2022-12-29T10:47:12;4.30;;;1.10;;
77220;SDS011;66217;50.004;8.266;2022-12-29T10:49:41;2.45;;;1.10;;
77220;SDS011;66217;50.004;8.266;2022-12-29T10:52:08;3.25;;;1.20;;
77220;SDS011;66217;50.004;8.266;2022-12-29T10:57:31;2.50;;;1.42;;
77220;SDS011;66217;50.004;8.266;2022-12-29T10:59:59;1.55;;;1.10;;
77220;SDS011;66217;50.004;8.266;2022-12-29T11:07:40;3.00;;;1.40;;
77220;SDS011;66217;50.004;8.266;2022-12-29T11:12:54;3.50;;;1.20;;
77220;SDS011;66217;50.004;8.266;2022-12-29T11:15:24;4.57;;;1.40;;
77220;SDS011;66217;50.004;8.266;2022-12-29T11:17:56;3.20;;;1.10;;
77220;SDS011;66217;50.004;8.266;2022-12-29T11:20:27;4.78;;;1.40;;
77220;SDS011;66217;50.004;8.266;2022-12-29T11:22:53;4.57;;;1.20;;
77220;SDS011;66217;50.004;8.266;2022-12-29T11:25:19;2.38;;;1.20;;
77220;SDS011;66217;50.004;8.266;2022-12-29T11:28:12;3.03;;;1.15;;
77220;SDS011;66217;50.004;8.266;2022-12-29T11:30:39;2.72;;;1.58;;
77220;SDS011;66217;50.004;8.266;2022-12-29T11:33:05;3.58;;;1.45;;
77220;SDS011;66217;50.004;8.266;2022-12-29T11:37:59;2.35;;;1.13;;
77220;SDS011;66217;50.004;8.266;2022-12-29T11:40:25;3.95;;;1.17;;
77220;SDS011;66217;50.004;8.266;2022-12-29T11:42:52;2.80;;;1.20;;
77220;SDS011;66217;50.004;8.266;2022-12-29T11:45:27;2.38;;;1.20;;
77220;SDS011;66217;50.004;8.266;2022-12-29T11:47:58;3.20;;;1.23;;
77220;SDS011;66217;50.004;8.266;2022-12-29T11:50:32;3.20;;;1.70;;
77220;SDS011;66217;50.004;8.266;2022-12-29T11:55:58;2.22;;;1.10;;
77220;SDS011;66217;50.004;8.266;2022-12-29T11:58:29;2.55;;;1.27;;
77220;SDS011;66217;50.004;8.266;2022-12-29T12:00:59;2.88;;;1.40;;
77220;SDS011;66217;50.004;8.266;2022-12-29T12:03:27;1.88;;;1.13;;
77220;SDS011;66217;50.004;8.266;2022-12-29T12:05:56;3.42;;;1.17;;
77220;SDS011;66217;50.004;8.266;2022-12-29T12:08:41;4.07;;;1.20;;
77220;SDS011;66217;50.004;8.266;2022-12-29T12:11:11;2.53;;;1.20;;
77220;SDS011;66217;50.004;8.266;2022-12-29T12:16:27;4.07;;;1.40;;
77220;SDS011;66217;50.004;8.266;2022-12-29T12:19:03;2.40;;;1.08;;
77220;SDS011;66217;50.004;8.266;2022-12-29T12:21:38;5.03;;;1.52;;
77220;SDS011;66217;50.004;8.266;2022-12-29T12:24:11;2.70;;;1.10;;
77220;SDS011;66217;50.004;8.266;2022-12-29T12:34:36;2.50;;;0.90;;
77220;SDS011;66217;50.004;8.266;2022-12-29T12:49:01;1.92;;;1.23;;
77220;SDS011;66217;50.004;8.266;2022-12-29T12:57:00;4.50;;;1.55;;
77220;SDS011;66217;50.004;8.266;2022-12-29T13:21:20;4.10;;;1.50;;
77220;SDS011;66217;50.004;8.266;2022-12-29T13:24:24;3.60;;;1.65;;
77220;SDS011;66217;50.004;8.266;2022-12-29T13:27:05;3.70;;;1.70;;
77220;SDS011;66217;50.004;8.266;2022-12-29T13:32:35;5.50;;;1.60;;
77220;SDS011;66217;50.004;8.266;2022-12-29T13:35:32;5.65;;;1.70;;
77220;SDS011;66217;50.004;8.266;2022-12-29T13:38:11;4.28;;;1.50;;
77220;SDS011;66217;50.004;8.266;2022-12-29T13:40:41;3.33;;;1.60;;
77220;SDS011;66217;50.004;8.266;2022-12-29T13:43:10;4.00;;;1.65;;
77220;SDS011;66217;50.004;8.266;2022-12-29T13:45:38;4.75;;;2.42;;
77220;SDS011;66217;50.004;8.266;2022-12-29T13:50:42;2.55;;;1.42;;
77220;SDS011;66217;50.004;8.266;2022-12-29T14:01:43;2.78;;;1.80;;
77220;SDS011;66217;50.004;8.266;2022-12-29T14:04:21;12.25;;;3.60;;
77220;SDS011;66217;50.004;8.266;2022-12-29T14:06:58;4.45;;;1.30;;
77220;SDS011;66217;50.004;8.266;2022-12-29T14:12:00;3.85;;;1.30;;
77220;SDS011;66217;50.004;8.266;2022-12-29T14:14:28;8.77;;;2.08;;
77220;SDS011;66217;50.004;8.266;2022-12-29T14:16:54;3.65;;;1.20;;
77220;SDS011;66217;50.004;8.266;2022-12-29T14:21:53;7.35;;;2.40;;
77220;SDS011;66217;50.004;8.266;2022-12-29T14:27:00;6.10;;;1.50;;
77220;SDS011;66217;50.004;8.266;2022-12-29T14:40:02;4.93;;;1.60;;
77220;SDS011;66217;50.004;8.266;2022-12-29T14:42:40;8.45;;;2.20;;
77220;SDS011;66217;50.004;8.266;2022-12-29T14:47:45;5.45;;;1.60;;
77220;SDS011;66217;50.004;8.266;2022-12-29T14:55:45;6.45;;;1.70;;
77220;SDS011;66217;50.004;8.266;2022-12-29T15:00:47;9.10;;;1.70;;
77220;SDS011;66217;50.004;8.266;2022-12-29T15:08:06;5.15;;;1.50;;
77220;SDS011;66217;50.004;8.266;2022-12-29T15:10:34;8.00;;;1.90;;
77220;SDS011;66217;50.004;8.266;2022-12-29T15:13:05;9.60;;;2.00;;
77220;SDS011;66217;50.004;8.266;2022-12-29T15:15:40;5.00;;;1.58;;
77220;SDS011;66217;50.004;8.266;2022-12-29T15:18:38;5.57;;;1.45;;
77220;SDS011;66217;50.004;8.266;2022-12-29T15:21:01;7.57;;;1.73;;
77220;SDS011;66217;50.004;8.266;2022-12-29T15:23:29;6.07;;;1.80;;
77220;SDS011;66217;50.004;8.266;2022-12-29T15:28:27;4.78;;;1.40;;
77220;SDS011;66217;50.004;8.266;2022-12-29T15:31:03;5.78;;;1.60;;
77220;SDS011;66217;50.004;8.266;2022-12-29T15:33:30;6.72;;;1.70;;
77220;SDS011;66217;50.004;8.266;2022-12-29T15:35:56;8.65;;;2.28;;
77220;SDS011;66217;50.004;8.266;2022-12-29T15:38:27;4.55;;;2.17;;
77220;SDS011;66217;50.004;8.266;2022-12-29T15:40:55;5.70;;;1.88;;
77220;SDS011;66217;50.004;8.266;2022-12-29T15:46:18;3.85;;;2.03;;
77220;SDS011;66217;50.004;8.266;2022-12-29T15:48:44;4.03;;;1.40;;
77220;SDS011;66217;50.004;8.266;2022-12-29T15:51:20;8.73;;;1.75;;
77220;SDS011;66217;50.004;8.266;2022-12-29T15:53:50;6.97;;;2.10;;
77220;SDS011;66217;50.004;8.266;2022-12-29T15:56:16;4.43;;;1.77;;
77220;SDS011;66217;50.004;8.266;2022-12-29T15:58:46;4.85;;;1.92;;
77220;SDS011;66217;50.004;8.266;2022-12-29T16:03:58;6.22;;;1.70;;
77220;SDS011;66217;50.004;8.266;2022-12-29T16:06:29;4.97;;;2.13;;
77220;SDS011;66217;50.004;8.266;2022-12-29T16:08:57;4.90;;;1.48;;
77220;SDS011;66217;50.004;8.266;2022-12-29T16:11:33;4.82;;;1.50;;
77220;SDS011;66217;50.004;8.266;2022-12-29T16:14:02;8.30;;;1.90;;
77220;SDS011;66217;50.004;8.266;2022-12-29T16:16:36;4.35;;;1.67;;
77220;SDS011;66217;50.004;8.266;2022-12-29T16:19:10;6.95;;;1.70;;
77220;SDS011;66217;50.004;8.266;2022-12-29T16:21:50;8.30;;;2.72;;
77220;SDS011;66217;50.004;8.266;2022-12-29T16:24:16;7.38;;;1.70;;
77220;SDS011;66217;50.004;8.266;2022-12-29T16:26:51;6.00;;;1.85;;
77220;SDS011;66217;50.004;8.266;2022-12-29T16:29:23;5.25;;;1.80;;
77220;SDS011;66217;50.004;8.266;2022-12-29T16:36:53;6.30;;;1.90;;
77220;SDS011;66217;50.004;8.266;2022-12-29T16:39:25;10.07;;;3.45;;
77220;SDS011;66217;50.004;8.266;2022-12-29T16:41:53;3.90;;;2.00;;
77220;SDS011;66217;50.004;8.266;2022-12-29T16:44:20;9.68;;;2.60;;
77220;SDS011;66217;50.004;8.266;2022-12-29T16:47:03;6.72;;;1.77;;
77220;SDS011;66217;50.004;8.266;2022-12-29T16:49:35;5.85;;;2.17;;
77220;SDS011;66217;50.004;8.266;2022-12-29T16:52:06;6.07;;;2.30;;
77220;SDS011;66217;50.004;8.266;2022-12-29T16:54:37;9.75;;;2.28;;
77220;SDS011;66217;50.004;8.266;2022-12-29T16:57:04;7.90;;;1.83;;
77220;SDS011;66217;50.004;8.266;2022-12-29T16:59:33;8.27;;;2.30;;
77220;SDS011;66217;50.004;8.266;2022-12-29T17:02:01;5.90;;;1.88;;
77220;SDS011;66217;50.004;8.266;2022-12-29T17:04:31;6.43;;;1.75;;
77220;SDS011;66217;50.004;8.266;2022-12-29T17:06:57;5.68;;;1.90;;
77220;SDS011;66217;50.004;8.266;2022-12-29T17:09:23;7.88;;;2.00;;
77220;SDS011;66217;50.004;8.266;2022-12-29T17:11:51;7.32;;;1.90;;
77220;SDS011;66217;50.004;8.266;2022-12-29T17:16:47;8.10;;;2.03;;
77220;SDS011;66217;50.004;8.266;2022-12-29T17:19:34;10.02;;;1.98;;
77220;SDS011;66217;50.004;8.266;2022-12-29T17:21:59;7.53;;;2.30;;
77220;SDS011;66217;50.004;8.266;2022-12-29T17:24:24;6.47;;;2.20;;
77220;SDS011;66217;50.004;8.266;2022-12-29T17:26:54;7.57;;;2.22;;
77220;SDS011;66217;50.004;8.266;2022-12-29T17:29:29;9.23;;;2.35;;
77220;SDS011;66217;50.004;8.266;2022-12-29T17:31:58;7.43;;;2.70;;
77220;SDS011;66217;50.004;8.266;2022-12-29T17:34:24;6.97;;;2.28;;
77220;SDS011;66217;50.004;8.266;2022-12-29T17:36:49;12.52;;;2.33;;
77220;SDS011;66217;50.004;8.266;2022-12-29T17:39:15;8.13;;;2.40;;
77220;SDS011;66217;50.004;8.266;2022-12-29T17:41:40;10.63;;;2.55;;
77220;SDS011;66217;50.004;8.266;2022-12-29T17:44:06;6.40;;;2.08;;
77220;SDS011;66217;50.004;8.266;2022-12-29T17:46:32;5.38;;;1.52;;
77220;SDS011;66217;50.004;8.266;2022-12-29T17:48:58;8.13;;;2.17;;
77220;SDS011;66217;50.004;8.266;2022-12-29T17:51:24;11.95;;;2.50;;
77220;SDS011;66217;50.004;8.266;2022-12-29T17:53:49;5.30;;;2.03;;
77220;SDS011;66217;50.004;8.266;2022-12-29T17:56:16;6.95;;;2.10;;
77220;SDS011;66217;50.004;8.266;2022-12-29T17:58:42;5.35;;;2.00;;
77220;SDS011;66217;50.004;8.266;2022-12-29T18:01:08;11.98;;;2.60;;
77220;SDS011;66217;50.004;8.266;2022-12-29T18:03:35;8.40;;;2.13;;
77220;SDS011;66217;50.004;8.266;2022-12-29T18:06:02;7.05;;;2.70;;
77220;SDS011;66217;50.004;8.266;2022-12-29T18:08:30;8.55;;;2.72;;
77220;SDS011;66217;50.004;8.266;2022-12-29T18:10:56;8.38;;;2.88;;
77220;SDS011;66217;50.004;8.266;2022-12-29T18:13:26;9.18;;;2.47;;
77220;SDS011;66217;50.004;8.266;2022-12-29T18:15:53;5.60;;;2.15;;
77220;SDS011;66217;50.004;8.266;2022-12-29T18:18:20;7.10;;;2.53;;